createdAt,value
2018-04-10T00:00:20.612Z,7.17
2018-04-10T00:02:48.851Z,7.10
2018-04-10T00:05:17.817Z,7.30
2018-04-10T00:07:47.596Z,6.93
2018-04-10T00:10:15.910Z,7.07
2018-04-10T00:12:44.081Z,6.33
2018-04-10T00:15:12.316Z,5.90
2018-04-10T00:17:41.252Z,6.73
2018-04-10T00:20:09.479Z,7.10
2018-04-10T00:22:37.684Z,6.80
2018-04-10T00:25:06.918Z,6.27
2018-04-10T00:27:35.120Z,6.60
2018-04-10T00:30:06.029Z,6.50
2018-04-10T00:32:34.329Z,6.90
2018-04-10T00:35:02.556Z,6.33
2018-04-10T00:37:31.528Z,6.53
2018-04-10T00:39:59.717Z,6.97
2018-04-10T00:42:27.939Z,6.97
2018-04-10T00:44:57.117Z,6.60
2018-04-10T00:47:26.162Z,6.83
2018-04-10T00:49:54.489Z,6.83
2018-04-10T00:52:24.872Z,6.28
2018-04-10T00:54:53.233Z,6.60
2018-04-10T00:57:21.420Z,6.80
2018-04-10T00:59:49.705Z,7.00
2018-04-10T01:02:19.951Z,6.70
2018-04-10T01:04:50.972Z,6.67
2018-04-10T01:07:20.887Z,6.43
2018-04-10T01:09:49.888Z,6.70
2018-04-10T01:12:19.679Z,6.80
2018-04-10T01:14:47.839Z,5.80
2018-04-10T01:17:16.069Z,5.83
2018-04-10T01:19:45.988Z,5.53
2018-04-10T01:22:14.925Z,5.70
2018-04-10T01:24:43.122Z,5.67
2018-04-10T01:27:11.325Z,5.77
2018-04-10T01:29:41.241Z,5.90
2018-04-10T01:32:09.415Z,5.83
2018-04-10T01:34:37.584Z,6.03
2018-04-10T01:37:05.761Z,5.83
2018-04-10T01:39:33.931Z,5.70
2018-04-10T01:42:03.844Z,6.10
2018-04-10T01:44:32.044Z,5.50
2018-04-10T01:49:37.288Z,5.50
2018-04-10T01:52:06.450Z,5.70
2018-04-10T01:54:34.682Z,6.00
2018-04-10T01:57:03.672Z,5.70
2018-04-10T01:59:32.573Z,5.97
2018-04-10T02:02:00.858Z,6.43
2018-04-10T02:04:31.674Z,6.17
2018-04-10T02:06:59.858Z,6.17
2018-04-10T02:09:45.529Z,5.37
2018-04-10T02:12:13.712Z,6.00
2018-04-10T02:14:41.890Z,5.97
2018-04-10T02:17:10.054Z,6.13
2018-04-10T02:19:38.311Z,6.47
2018-04-10T02:22:07.133Z,5.50
2018-04-10T02:24:38.229Z,5.77
2018-04-10T02:27:06.443Z,5.70
2018-04-10T02:29:34.608Z,5.90
2018-04-10T02:32:02.820Z,6.07
2018-04-10T02:34:30.995Z,6.00
2018-04-10T02:36:59.241Z,5.80
2018-04-10T02:39:29.043Z,5.93
2018-04-10T02:41:57.983Z,5.77
2018-04-10T02:44:26.179Z,5.57
2018-04-10T02:46:54.343Z,5.77
2018-04-10T02:49:22.525Z,5.37
2018-04-10T02:51:50.869Z,6.27
2018-04-10T02:54:19.053Z,5.37
2018-04-10T02:56:49.729Z,5.60
2018-04-10T02:59:17.982Z,5.93
2018-04-10T03:01:46.169Z,5.27
2018-04-10T03:04:14.359Z,5.27
2018-04-10T03:06:42.577Z,6.60
2018-04-10T03:09:10.733Z,5.67
2018-04-10T03:11:38.951Z,6.07
2018-04-10T03:14:07.167Z,5.17
2018-04-10T03:16:35.389Z,5.60
2018-04-10T03:19:03.556Z,5.40
2018-04-10T03:21:32.493Z,5.33
2018-04-10T03:24:02.269Z,6.10
2018-04-10T03:26:30.578Z,5.50
2018-04-10T03:28:58.815Z,6.00
2018-04-10T03:31:27.001Z,4.93
2018-04-10T03:33:57.583Z,5.07
2018-04-10T03:36:27.695Z,5.47
2018-04-10T03:38:56.075Z,6.07
2018-04-10T03:41:24.561Z,5.80
2018-04-10T03:43:55.785Z,5.30
2018-04-10T03:46:24.004Z,5.87
2018-04-10T03:48:52.237Z,5.50
2018-04-10T03:51:20.500Z,5.80
2018-04-10T03:53:48.726Z,5.33
2018-04-10T03:56:18.674Z,5.97
2018-04-10T03:58:46.994Z,5.83
2018-04-10T04:01:15.162Z,5.60
2018-04-10T04:03:43.369Z,6.10
2018-04-10T04:06:13.452Z,6.37
2018-04-10T04:08:41.813Z,6.43
2018-04-10T04:11:10.172Z,6.50
2018-04-10T04:13:38.430Z,5.50
2018-04-10T04:16:09.016Z,5.87
2018-04-10T04:18:49.165Z,6.50
2018-04-10T04:21:32.673Z,6.43
2018-04-10T04:24:01.716Z,5.67
2018-04-10T04:26:29.988Z,5.90
2018-04-10T04:28:58.197Z,5.77
2018-04-10T04:31:26.425Z,5.97
2018-04-10T04:33:54.626Z,5.60
2018-04-10T04:36:22.866Z,5.60
2018-04-10T04:38:52.799Z,5.30
2018-04-10T04:41:20.983Z,5.80
2018-04-10T04:43:49.216Z,5.70
2018-04-10T04:46:17.744Z,5.80
2018-04-10T04:48:46.026Z,6.00
2018-04-10T04:51:16.901Z,6.20
2018-04-10T04:53:46.931Z,5.80
2018-04-10T04:56:17.066Z,6.00
2018-04-10T04:58:46.821Z,6.77
2018-04-10T05:01:14.998Z,6.63
2018-04-10T05:03:43.260Z,6.37
2018-04-10T05:06:14.126Z,7.23
2018-04-10T05:08:42.335Z,6.30
2018-04-10T05:11:13.567Z,5.47
2018-04-10T05:13:43.933Z,6.00
2018-04-10T05:16:19.441Z,5.30
2018-04-10T05:18:50.273Z,6.17
2018-04-10T05:21:18.481Z,6.00
2018-04-10T05:23:47.853Z,6.23
2018-04-10T05:26:16.797Z,6.37
2018-04-10T05:28:45.007Z,6.00
2018-04-10T05:31:13.295Z,6.00
2018-04-10T05:33:41.545Z,6.20
2018-04-10T05:36:09.785Z,6.70
2018-04-10T05:38:40.823Z,5.70
2018-04-10T05:41:09.017Z,6.40
2018-04-10T05:43:37.947Z,5.87
2018-04-10T05:46:09.678Z,5.83
2018-04-10T05:48:37.904Z,6.63
2018-04-10T05:51:06.077Z,6.87
2018-04-10T05:53:34.263Z,6.70
2018-04-10T05:56:04.242Z,13.40
2018-04-10T05:58:34.035Z,17.80
2018-04-10T06:01:02.241Z,12.00
2018-04-10T06:03:30.413Z,10.73
2018-04-10T06:06:00.475Z,8.17
2018-04-10T06:08:28.843Z,7.77
2018-04-10T06:10:58.664Z,7.17
2018-04-10T06:13:26.847Z,6.40
2018-04-10T06:15:55.020Z,6.20
2018-04-10T06:18:25.896Z,6.43
2018-04-10T06:20:54.109Z,6.73
2018-04-10T06:23:22.297Z,6.70
2018-04-10T06:25:50.460Z,6.40
2018-04-10T06:28:20.374Z,5.60
2018-04-10T06:30:48.584Z,7.33
2018-04-10T06:33:16.796Z,6.67
2018-04-10T06:35:44.955Z,6.30
2018-04-10T06:38:13.153Z,6.30
2018-04-10T06:40:41.333Z,6.07
2018-04-10T06:43:11.279Z,6.50
2018-04-10T06:45:39.501Z,6.77
2018-04-10T06:48:07.735Z,6.97
2018-04-10T06:50:35.917Z,6.90
2018-04-10T06:53:04.119Z,6.23
2018-04-10T06:55:32.397Z,7.03
2018-04-10T06:58:00.597Z,7.10
2018-04-10T07:00:28.796Z,7.50
2018-04-10T07:02:56.997Z,7.60
2018-04-10T07:05:25.213Z,8.20
2018-04-10T07:07:54.333Z,8.93
2018-04-10T07:10:22.659Z,8.67
2018-04-10T07:12:51.673Z,9.00
2018-04-10T07:15:19.915Z,9.10
2018-04-10T07:17:50.017Z,10.10
2018-04-10T07:20:18.240Z,9.80
2018-04-10T07:22:47.428Z,10.37
2018-04-10T07:25:16.329Z,10.60
2018-04-10T07:27:46.721Z,10.77
2018-04-10T07:30:15.718Z,9.60
2018-04-10T07:32:44.005Z,10.47
2018-04-10T07:35:12.191Z,10.13
2018-04-10T07:37:40.383Z,10.87
2018-04-10T07:40:08.575Z,12.60
2018-04-10T07:42:36.768Z,12.17
2018-04-10T07:45:04.992Z,10.83
2018-04-10T07:47:33.188Z,11.97
2018-04-10T07:50:02.613Z,12.00
2018-04-10T07:52:32.366Z,13.07
2018-04-10T07:55:01.723Z,12.50
2018-04-10T07:57:30.058Z,13.10
2018-04-10T07:59:59.094Z,14.80
2018-04-10T08:02:27.356Z,14.00
2018-04-10T08:04:55.621Z,13.57
2018-04-10T08:07:25.490Z,14.60
2018-04-10T08:09:53.737Z,15.60
2018-04-10T08:12:23.594Z,16.07
2018-04-10T08:14:51.860Z,16.30
2018-04-10T08:17:21.667Z,15.13
2018-04-10T08:19:49.866Z,16.13
2018-04-10T08:22:18.150Z,15.10
2018-04-10T08:24:46.339Z,15.23
2018-04-10T08:27:16.306Z,15.37
2018-04-10T08:29:44.512Z,15.97
2018-04-10T08:32:12.754Z,15.87
2018-04-10T08:34:41.761Z,14.40
2018-04-10T08:37:12.594Z,14.20
2018-04-10T08:39:43.777Z,15.27
2018-04-10T08:42:14.205Z,15.50
2018-04-10T08:44:43.943Z,15.97
2018-04-10T08:47:13.213Z,17.10
2018-04-10T08:49:43.195Z,16.20
2018-04-10T08:52:11.450Z,16.77
2018-04-10T08:54:39.776Z,16.40
2018-04-10T08:57:07.966Z,16.27
2018-04-10T08:59:36.970Z,16.87
2018-04-10T09:02:05.143Z,15.93
2018-04-10T09:04:33.367Z,17.17
2018-04-10T09:07:01.559Z,16.87
2018-04-10T09:09:29.789Z,18.43
2018-04-10T09:11:59.935Z,16.03
2018-04-10T09:14:28.162Z,17.73
2018-04-10T09:16:56.361Z,16.60
2018-04-10T09:19:24.553Z,17.27
2018-04-10T09:21:52.865Z,17.47
2018-04-10T09:24:21.111Z,16.73
2018-04-10T09:26:49.321Z,17.97
2018-04-10T09:29:19.136Z,17.00
2018-04-10T09:31:47.456Z,16.67
2018-04-10T09:34:16.407Z,17.80
2018-04-10T09:36:44.675Z,17.03
2018-04-10T09:39:15.477Z,16.80
2018-04-10T09:41:43.783Z,17.10
2018-04-10T09:44:12.010Z,17.30
2018-04-10T09:46:43.536Z,17.10
2018-04-10T09:49:11.826Z,17.70
2018-04-10T09:51:41.823Z,17.30
2018-04-10T09:54:10.057Z,17.40
2018-04-10T09:56:38.259Z,18.57
2018-04-10T09:59:07.252Z,17.40
2018-04-10T10:01:36.738Z,20.53
2018-04-10T10:04:07.616Z,20.20
2018-04-10T10:06:40.606Z,19.50
2018-04-10T10:09:09.675Z,18.80
2018-04-10T10:11:37.906Z,19.90
2018-04-10T10:14:06.120Z,21.27
2018-04-10T10:16:34.504Z,20.83
2018-04-10T10:19:05.356Z,20.93
2018-04-10T10:21:33.646Z,21.60
2018-04-10T10:24:01.885Z,18.80
2018-04-10T10:26:31.894Z,20.30
2018-04-10T10:29:00.097Z,19.80
2018-04-10T10:31:28.348Z,19.47
2018-04-10T10:33:59.191Z,19.20
2018-04-10T10:36:28.453Z,19.20
2018-04-10T10:38:58.436Z,19.63
2018-04-10T10:41:28.315Z,19.53
2018-04-10T10:43:56.567Z,20.07
2018-04-10T10:46:24.857Z,21.00
2018-04-10T10:48:53.144Z,20.57
2018-04-10T10:51:21.370Z,21.13
2018-04-10T10:53:50.159Z,22.57
2018-04-10T10:56:18.523Z,20.17
2018-04-10T10:58:46.801Z,21.67
2018-04-10T11:01:17.797Z,20.63
2018-04-10T11:03:46.796Z,19.90
2018-04-10T11:06:15.022Z,21.47
2018-04-10T11:08:43.976Z,22.47
2018-04-10T11:11:12.172Z,21.17
2018-04-10T11:13:40.366Z,20.93
2018-04-10T11:16:08.667Z,21.97
2018-04-10T11:18:37.306Z,21.70
2018-04-10T11:21:06.412Z,21.40
2018-04-10T11:23:34.610Z,21.20
2018-04-10T11:26:02.835Z,23.00
2018-04-10T11:28:31.145Z,20.60
2018-04-10T11:30:59.627Z,21.97
2018-04-10T11:33:27.889Z,21.50
2018-04-10T11:35:56.087Z,20.73
2018-04-10T11:38:24.448Z,21.53
2018-04-10T11:40:52.778Z,21.57
2018-04-10T11:43:21.086Z,22.40
2018-04-10T11:45:49.329Z,21.03
2018-04-10T11:48:17.542Z,22.27
2018-04-10T11:50:45.799Z,22.87
2018-04-10T11:53:14.059Z,21.53
2018-04-10T11:55:42.289Z,21.77
2018-04-10T11:58:11.328Z,21.80
2018-04-10T12:00:40.030Z,21.20
2018-04-10T12:03:10.158Z,22.17
2018-04-10T12:05:38.463Z,22.40
2018-04-10T12:08:07.736Z,22.37
2018-04-10T12:10:37.769Z,23.37
2018-04-10T12:13:06.017Z,22.63
2018-04-10T12:15:34.284Z,23.30
2018-04-10T12:18:03.540Z,21.93
2018-04-10T12:20:31.755Z,20.13
2018-04-10T12:23:00.021Z,23.17
2018-04-10T12:25:28.231Z,22.53
2018-04-10T12:27:59.005Z,21.83
2018-04-10T12:30:27.197Z,21.97
2018-04-10T12:32:55.527Z,23.13
2018-04-10T12:35:24.494Z,22.83
2018-04-10T12:37:52.805Z,22.03
2018-04-10T12:40:21.040Z,23.17
2018-04-10T12:42:54.277Z,20.73
2018-04-10T12:45:23.457Z,21.80
2018-04-10T12:47:51.681Z,21.93
2018-04-10T12:50:19.903Z,21.50
2018-04-10T12:52:48.280Z,20.83
2018-04-10T12:55:16.565Z,20.77
2018-04-10T12:57:44.798Z,20.63
2018-04-10T13:00:13.109Z,22.30
2018-04-10T13:02:41.423Z,22.67
2018-04-10T13:05:09.794Z,21.57
2018-04-10T13:07:38.100Z,21.40
2018-04-10T13:10:06.309Z,21.13
2018-04-10T13:12:36.268Z,20.77
2018-04-10T13:15:04.552Z,21.13
2018-04-10T13:17:32.778Z,21.27
2018-04-10T13:20:00.966Z,21.70
2018-04-10T13:22:29.276Z,20.80
2018-04-10T13:24:57.629Z,20.93
2018-04-10T13:27:26.707Z,22.77
2018-04-10T13:29:58.737Z,21.27
2018-04-10T13:32:27.010Z,20.33
2018-04-10T13:34:55.232Z,22.57
2018-04-10T13:37:23.467Z,22.63
2018-04-10T13:39:51.775Z,21.57
2018-04-10T13:42:22.608Z,20.53
2018-04-10T13:44:50.856Z,20.87
2018-04-10T13:47:20.819Z,21.60
2018-04-10T13:52:23.527Z,19.70
2018-04-10T13:54:53.524Z,19.07
2018-04-10T13:57:24.347Z,19.67
2018-04-10T13:59:55.803Z,18.23
2018-04-10T14:02:24.044Z,19.07
2018-04-10T14:04:53.992Z,18.73
2018-04-10T14:07:22.244Z,18.53
2018-04-10T14:09:50.515Z,18.80
2018-04-10T14:12:20.416Z,15.87
2018-04-10T14:14:51.248Z,16.13
2018-04-10T14:17:20.239Z,14.80
2018-04-10T14:19:50.491Z,14.60
2018-04-10T14:22:20.417Z,14.17
2018-04-10T14:24:51.535Z,13.90
2018-04-10T14:27:21.603Z,12.20
2018-04-10T14:29:49.981Z,14.50
2018-04-10T14:32:18.327Z,13.23
2018-04-10T14:34:47.733Z,11.83
2018-04-10T14:37:15.930Z,10.40
2018-04-10T14:39:45.834Z,10.60
2018-04-10T14:42:14.054Z,7.97
2018-04-10T14:44:43.064Z,7.87
2018-04-10T14:47:13.884Z,9.40
2018-04-10T14:49:43.028Z,7.97
2018-04-10T14:52:11.319Z,7.30
2018-04-10T14:54:39.681Z,7.23
2018-04-10T14:57:07.953Z,7.23
2018-04-10T14:59:36.279Z,6.50
2018-04-10T15:02:06.265Z,6.50
2018-04-10T15:04:35.238Z,6.10
2018-04-10T15:07:03.469Z,6.23
2018-04-10T15:09:32.961Z,6.43
2018-04-10T15:12:01.250Z,6.03
2018-04-10T15:14:31.155Z,5.70
2018-04-10T15:16:59.381Z,5.97
2018-04-10T15:19:28.493Z,6.67
2018-04-10T15:21:56.806Z,5.80
2018-04-10T15:24:25.027Z,6.70
2018-04-10T15:26:53.252Z,5.67
2018-04-10T15:29:21.502Z,7.00
2018-04-10T15:31:51.483Z,4.97
2018-04-10T15:34:19.709Z,4.90
2018-04-10T15:36:49.948Z,4.50
2018-04-10T15:39:19.819Z,5.20
2018-04-10T15:41:49.789Z,4.90
2018-04-10T15:44:17.997Z,4.77
2018-04-10T15:46:46.253Z,5.20
2018-04-10T15:49:14.501Z,5.40
2018-04-10T15:51:44.360Z,4.60
2018-04-10T15:54:15.225Z,4.57
2018-04-10T15:56:49.013Z,4.30
2018-04-10T15:59:17.230Z,4.60
2018-04-10T16:01:47.046Z,4.67
2018-04-10T16:04:15.244Z,4.80
2018-04-10T16:06:43.595Z,4.43
2018-04-10T16:09:11.817Z,4.37
2018-04-10T16:11:40.092Z,4.67
2018-04-10T16:14:08.350Z,5.37
2018-04-10T16:16:36.537Z,4.47
2018-04-10T16:19:05.041Z,5.00
2018-04-10T16:21:33.280Z,5.00
2018-04-10T16:24:03.239Z,4.60
2018-04-10T16:26:32.173Z,5.17
2018-04-10T16:29:01.167Z,4.40
2018-04-10T16:31:30.587Z,4.87
2018-04-10T16:34:01.106Z,5.00
2018-04-10T16:36:31.068Z,6.10
2018-04-10T16:38:59.446Z,4.83
2018-04-10T16:41:27.921Z,6.10
2018-04-10T16:43:56.192Z,4.20
2018-04-10T16:46:24.448Z,4.50
2018-04-10T16:48:52.717Z,4.53
2018-04-10T16:51:20.920Z,4.33
2018-04-10T16:53:49.848Z,4.80
2018-04-10T16:56:18.082Z,4.50
2018-04-10T16:58:47.256Z,4.63
2018-04-10T17:01:15.588Z,5.33
2018-04-10T17:03:45.548Z,6.57
2018-04-10T17:06:13.885Z,5.53
2018-04-10T17:08:44.793Z,5.67
2018-04-10T17:11:14.950Z,6.90
2018-04-10T17:13:43.695Z,6.67
2018-04-10T17:18:52.081Z,7.13
2018-04-10T17:21:23.361Z,6.33
2018-04-10T17:23:55.841Z,5.73
2018-04-10T17:26:24.219Z,5.00
2018-04-10T17:28:55.352Z,5.50
2018-04-10T17:31:27.626Z,5.83
2018-04-10T17:33:59.287Z,5.97
2018-04-10T17:36:29.167Z,4.97
2018-04-10T17:38:57.445Z,9.60
2018-04-10T17:41:25.686Z,5.13
2018-04-10T17:43:54.023Z,6.70
2018-04-10T17:46:22.645Z,6.53
2018-04-10T17:48:52.042Z,5.47
2018-04-10T17:51:22.056Z,5.53
2018-04-10T17:53:50.292Z,6.17
2018-04-10T17:56:19.786Z,5.30
2018-04-10T17:58:48.268Z,6.37
2018-04-10T18:01:16.494Z,7.17
2018-04-10T18:03:44.729Z,5.70
2018-04-10T18:06:13.053Z,5.80
2018-04-10T18:08:41.293Z,6.37
2018-04-10T18:11:09.607Z,6.97
2018-04-10T18:13:39.684Z,12.10
2018-04-10T18:16:07.965Z,10.77
2018-04-10T18:18:37.925Z,19.00
2018-04-10T18:21:07.394Z,16.93
2018-04-10T18:23:35.798Z,15.80
2018-04-10T18:26:04.873Z,12.93
2018-04-10T18:28:33.252Z,14.80
2018-04-10T18:31:03.430Z,11.30
2018-04-10T18:33:32.493Z,9.47
2018-04-10T18:36:01.077Z,7.87
2018-04-10T18:38:29.661Z,7.83
2018-04-10T18:40:58.008Z,7.23
2018-04-10T18:43:27.161Z,7.67
2018-04-10T18:45:55.540Z,7.60
2018-04-10T18:48:23.816Z,6.67
2018-04-10T18:50:52.320Z,6.90
2018-04-10T18:53:20.763Z,7.50
2018-04-10T18:55:49.142Z,7.13
2018-04-10T18:58:17.429Z,7.70
2018-04-10T19:00:46.018Z,7.97
2018-04-10T19:03:14.239Z,8.10
2018-04-10T19:05:46.454Z,9.73
2018-04-10T19:08:14.881Z,8.43
2018-04-10T19:10:43.320Z,8.33
2018-04-10T19:13:11.619Z,7.53
2018-04-10T19:15:41.729Z,7.77
2018-04-10T19:20:44.409Z,8.93
2018-04-10T19:23:13.170Z,9.10
2018-04-10T19:25:42.426Z,8.37
2018-04-10T19:28:10.913Z,7.80
2018-04-10T19:30:39.394Z,8.10
2018-04-10T19:33:08.397Z,8.20
2018-04-10T19:35:39.290Z,7.23
2018-04-10T19:38:07.570Z,8.20
2018-04-10T19:40:37.547Z,8.03
2018-04-10T19:43:05.857Z,7.90
2018-04-10T19:45:36.623Z,7.73
2018-04-10T19:48:05.136Z,7.17
2018-04-10T19:50:33.516Z,7.90
2018-04-10T19:53:01.867Z,7.97
2018-04-10T19:55:30.333Z,8.50
2018-04-10T19:57:58.767Z,8.10
2018-04-10T20:00:27.066Z,8.10
2018-04-10T20:02:55.686Z,7.03
2018-04-10T20:05:24.783Z,7.73
2018-04-10T20:07:54.704Z,7.00
2018-04-10T20:10:22.935Z,7.23
2018-04-10T20:12:52.134Z,6.80
2018-04-10T20:15:20.373Z,6.80
2018-04-10T20:17:51.205Z,6.90
2018-04-10T20:20:19.547Z,6.60
2018-04-10T20:22:47.795Z,7.10
2018-04-10T20:25:16.070Z,6.83
2018-04-10T20:27:47.903Z,8.33
2018-04-10T20:30:16.101Z,8.40
2018-04-10T20:32:49.394Z,8.30
2018-04-10T20:35:17.836Z,8.20
2018-04-10T20:37:46.104Z,8.27
2018-04-10T20:40:14.478Z,8.10
2018-04-10T20:42:43.233Z,8.40
2018-04-10T20:45:14.660Z,7.80
2018-04-10T20:47:50.441Z,7.80
2018-04-10T20:50:18.919Z,7.93
2018-04-10T20:52:47.326Z,9.40
2018-04-10T20:55:15.849Z,9.10
2018-04-10T20:57:44.134Z,8.13
2018-04-10T21:00:14.114Z,10.03
2018-04-10T21:02:42.388Z,9.60
2018-04-10T21:05:13.269Z,9.30
2018-04-10T21:07:42.258Z,9.03
2018-04-10T21:10:11.566Z,9.87
2018-04-10T21:12:39.848Z,9.70
2018-04-10T21:15:08.112Z,9.83
2018-04-10T21:17:36.519Z,9.50
2018-04-10T21:20:04.795Z,7.83
2018-04-10T21:22:32.982Z,7.57
2018-04-10T21:25:01.973Z,7.50
2018-04-10T21:27:30.210Z,7.53
2018-04-10T21:29:58.442Z,6.90
2018-04-10T21:32:28.431Z,6.77
2018-04-10T21:34:56.613Z,5.90
2018-04-10T21:37:24.844Z,5.17
2018-04-10T21:39:53.052Z,5.43
2018-04-10T21:42:21.391Z,6.00
2018-04-10T21:44:49.583Z,5.10
2018-04-10T21:47:18.531Z,5.10
2018-04-10T21:49:46.735Z,4.87
2018-04-10T21:52:14.915Z,5.30
2018-04-10T21:54:43.885Z,5.00
2018-04-10T21:57:12.167Z,4.43
2018-04-10T21:59:40.366Z,4.67
2018-04-10T22:02:08.585Z,4.10
2018-04-10T22:04:36.817Z,4.00
2018-04-10T22:07:05.031Z,3.77
2018-04-10T22:09:33.174Z,4.07
2018-04-10T22:12:02.199Z,4.63
2018-04-10T22:14:30.351Z,3.70
2018-04-10T22:16:58.539Z,4.77
2018-04-10T22:19:39.233Z,3.67
2018-04-10T22:22:07.391Z,4.43
2018-04-10T22:24:35.535Z,4.20
2018-04-10T22:27:03.730Z,3.57
2018-04-10T22:29:31.872Z,4.00
2018-04-10T22:32:00.123Z,4.20
2018-04-10T22:34:28.272Z,3.97
2018-04-10T22:36:56.441Z,4.50
2018-04-10T22:39:24.654Z,4.10
2018-04-10T22:41:52.797Z,4.17
2018-04-10T22:44:20.955Z,4.40
2018-04-10T22:46:49.105Z,4.90
2018-04-10T22:49:17.295Z,4.33
2018-04-10T22:51:45.481Z,3.63
2018-04-10T22:54:13.631Z,4.23
2018-04-10T22:56:41.787Z,4.70
2018-04-10T22:59:09.938Z,4.27
2018-04-10T23:01:38.143Z,3.77
2018-04-10T23:04:07.005Z,4.60
2018-04-10T23:06:35.188Z,4.10
2018-04-10T23:09:03.343Z,4.37
2018-04-10T23:11:31.507Z,4.00
2018-04-10T23:13:59.693Z,3.90
2018-04-10T23:16:27.845Z,4.40
2018-04-10T23:18:56.009Z,3.80
2018-04-10T23:21:31.153Z,4.07
2018-04-10T23:23:59.313Z,4.70
2018-04-10T23:26:27.481Z,4.27
2018-04-10T23:28:55.664Z,4.60
2018-04-10T23:31:23.848Z,4.40
2018-04-10T23:33:52.002Z,4.07
2018-04-10T23:36:20.224Z,4.10
2018-04-10T23:38:48.448Z,3.63
2018-04-10T23:41:16.686Z,3.80
2018-04-10T23:43:45.029Z,3.93
2018-04-10T23:46:13.250Z,3.87
2018-04-10T23:48:41.401Z,3.53
2018-04-10T23:51:09.553Z,3.93
2018-04-10T23:53:38.483Z,3.70
2018-04-10T23:56:06.669Z,3.47
2018-04-10T23:58:34.829Z,4.17
